createdAt,value
2018-04-02T00:00:27.731Z,0.00
2018-04-02T00:01:27.935Z,0.00
2018-04-02T00:02:27.719Z,0.00
2018-04-02T00:03:27.767Z,0.00
2018-04-02T00:04:27.723Z,0.00
2018-04-02T00:05:27.715Z,0.00
2018-04-02T00:06:27.697Z,0.00
2018-04-02T00:07:27.711Z,0.00
2018-04-02T00:08:27.711Z,0.00
2018-04-02T00:09:27.691Z,0.00
2018-04-02T00:10:27.676Z,0.00
2018-04-02T00:11:27.667Z,0.00
2018-04-02T00:12:27.659Z,0.00
2018-04-02T00:13:27.659Z,0.00
2018-04-02T00:14:27.653Z,0.00
2018-04-02T00:15:27.658Z,0.00
2018-04-02T00:16:27.697Z,0.00
2018-04-02T00:17:27.634Z,0.00
2018-04-02T00:18:27.650Z,0.00
2018-04-02T00:19:27.635Z,0.00
2018-04-02T00:20:27.623Z,0.00
2018-04-02T00:21:27.610Z,0.00
2018-04-02T00:22:27.602Z,0.00
2018-04-02T00:23:27.810Z,0.00
2018-04-02T00:24:27.605Z,0.00
2018-04-02T00:25:27.583Z,0.00
2018-04-02T00:26:27.782Z,0.00
2018-04-02T00:27:27.573Z,0.00
2018-04-02T00:28:27.578Z,0.00
2018-04-02T00:29:27.573Z,0.00
2018-04-02T00:30:27.554Z,0.00
2018-04-02T00:31:27.545Z,0.00
2018-04-02T00:32:27.542Z,0.00
2018-04-02T00:33:27.767Z,0.00
2018-04-02T00:34:27.555Z,0.00
2018-04-02T00:35:27.535Z,0.00
2018-04-02T00:36:27.522Z,0.00
2018-04-02T00:37:27.522Z,0.00
2018-04-02T00:38:27.515Z,0.00
2018-04-02T00:39:27.512Z,0.00
2018-04-02T00:40:27.513Z,0.00
2018-04-02T00:41:27.499Z,0.00
2018-04-02T00:42:27.506Z,0.00
2018-04-02T00:43:27.478Z,0.00
2018-04-02T00:44:27.482Z,0.00
2018-04-02T00:45:27.467Z,0.00
2018-04-02T00:46:27.482Z,0.00
2018-04-02T00:47:27.464Z,0.00
2018-04-02T00:48:27.463Z,0.00
2018-04-02T00:49:27.451Z,0.00
2018-04-02T00:50:27.457Z,0.00
2018-04-02T00:51:27.429Z,0.00
2018-04-02T00:52:27.452Z,0.00
2018-04-02T00:53:27.644Z,0.00
2018-04-02T00:54:27.411Z,0.00
2018-04-02T00:55:27.407Z,0.00
2018-04-02T00:56:27.427Z,0.00
2018-04-02T00:57:27.407Z,0.00
2018-04-02T00:58:27.404Z,0.00
2018-04-02T00:59:27.611Z,0.00
2018-04-02T01:00:27.380Z,0.00
2018-04-02T01:01:27.597Z,0.00
2018-04-02T01:02:27.379Z,0.00
2018-04-02T01:03:27.564Z,0.00
2018-04-02T01:04:27.354Z,0.00
2018-04-02T01:05:27.564Z,0.00
2018-04-02T01:06:27.340Z,0.00
2018-04-02T01:07:27.347Z,0.00
2018-04-02T01:08:27.342Z,0.00
2018-04-02T01:09:27.541Z,0.00
2018-04-02T01:10:27.534Z,0.00
2018-04-02T01:11:27.331Z,0.00
2018-04-02T01:12:27.308Z,0.00
2018-04-02T01:13:27.300Z,0.00
2018-04-02T01:14:27.500Z,0.00
2018-04-02T01:15:27.286Z,0.00
2018-04-02T01:16:27.494Z,0.00
2018-04-02T01:17:27.275Z,0.00
2018-04-02T01:18:27.278Z,0.00
2018-04-02T01:19:27.263Z,0.00
2018-04-02T01:20:27.255Z,0.00
2018-04-02T01:21:27.254Z,0.00
2018-04-02T01:22:27.286Z,0.00
2018-04-02T01:23:27.451Z,0.00
2018-04-02T01:24:27.238Z,0.00
2018-04-02T01:25:27.227Z,0.00
2018-04-02T01:26:27.231Z,0.00
2018-04-02T01:27:27.212Z,0.00
2018-04-02T01:28:27.217Z,0.00
2018-04-02T01:29:27.215Z,0.00
2018-04-02T01:30:27.396Z,0.00
2018-04-02T01:31:27.203Z,0.00
2018-04-02T01:32:27.384Z,0.00
2018-04-02T01:33:27.178Z,0.00
2018-04-02T01:34:27.171Z,0.00
2018-04-02T01:35:27.164Z,0.00
2018-04-02T01:36:27.173Z,0.00
2018-04-02T01:37:27.175Z,0.00
2018-04-02T01:38:27.361Z,0.00
2018-04-02T01:39:27.140Z,0.00
2018-04-02T01:40:27.358Z,0.00
2018-04-02T01:41:27.126Z,0.00
2018-04-02T01:42:27.124Z,0.00
2018-04-02T01:43:27.342Z,0.00
2018-04-02T01:44:27.328Z,0.00
2018-04-02T01:45:27.117Z,0.00
2018-04-02T01:46:27.099Z,0.00
2018-04-02T01:47:27.294Z,0.00
2018-04-02T01:48:27.089Z,0.00
2018-04-02T01:49:27.084Z,0.00
2018-04-02T01:50:27.101Z,0.00
2018-04-02T01:51:27.089Z,0.00
2018-04-02T01:52:27.280Z,0.00
2018-04-02T01:53:27.059Z,0.00
2018-04-02T01:54:27.265Z,0.00
2018-04-02T01:55:27.040Z,0.00
2018-04-02T01:56:27.265Z,0.00
2018-04-02T01:57:27.041Z,0.00
2018-04-02T01:58:27.036Z,0.00
2018-04-02T01:59:27.235Z,0.00
2018-04-02T02:00:27.023Z,0.00
2018-04-02T02:01:27.017Z,0.00
2018-04-02T02:02:26.998Z,0.00
2018-04-02T02:03:27.008Z,0.00
2018-04-02T02:04:26.999Z,0.00
2018-04-02T02:05:26.991Z,0.00
2018-04-02T02:06:26.996Z,0.00
2018-04-02T02:07:27.193Z,0.00
2018-04-02T02:08:27.171Z,0.00
2018-04-02T02:09:26.970Z,0.00
2018-04-02T02:10:26.973Z,0.00
2018-04-02T02:11:26.952Z,0.00
2018-04-02T02:12:26.957Z,0.00
2018-04-02T02:13:26.954Z,0.00
2018-04-02T02:14:26.924Z,0.00
2018-04-02T02:15:26.938Z,0.00
2018-04-02T02:16:26.919Z,0.00
2018-04-02T02:17:26.932Z,0.00
2018-04-02T02:18:26.898Z,0.00
2018-04-02T02:19:26.901Z,0.00
2018-04-02T02:20:26.883Z,0.00
2018-04-02T02:21:27.079Z,0.00
2018-04-02T02:22:26.880Z,0.00
2018-04-02T02:23:27.066Z,0.00
2018-04-02T02:24:27.068Z,0.00
2018-04-02T02:25:26.866Z,0.00
2018-04-02T02:26:26.851Z,0.00
2018-04-02T02:27:27.063Z,0.00
2018-04-02T02:28:26.851Z,0.00
2018-04-02T02:29:26.835Z,0.00
2018-04-02T02:30:26.842Z,0.00
2018-04-02T02:31:26.837Z,0.00
2018-04-02T02:32:26.815Z,0.00
2018-04-02T02:33:26.799Z,0.00
2018-04-02T02:34:26.807Z,0.00
2018-04-02T02:35:26.797Z,0.00
2018-04-02T02:36:26.787Z,0.00
2018-04-02T02:37:26.783Z,0.00
2018-04-02T02:38:26.776Z,0.00
2018-04-02T02:39:26.763Z,0.00
2018-04-02T02:40:26.785Z,0.00
2018-04-02T02:41:26.758Z,0.00
2018-04-02T02:42:26.748Z,0.00
2018-04-02T02:43:26.961Z,0.00
2018-04-02T02:44:26.767Z,0.00
2018-04-02T02:45:26.719Z,0.00
2018-04-02T02:46:26.710Z,0.00
2018-04-02T02:47:26.715Z,0.00
2018-04-02T02:48:26.701Z,0.00
2018-04-02T02:49:26.911Z,0.00
2018-04-02T02:50:26.900Z,0.00
2018-04-02T02:51:26.886Z,0.00
2018-04-02T02:52:26.877Z,0.00
2018-04-02T02:53:26.670Z,0.00
2018-04-02T02:54:26.866Z,0.00
2018-04-02T02:55:26.859Z,0.00
2018-04-02T02:56:26.646Z,0.00
2018-04-02T02:57:26.858Z,0.00
2018-04-02T02:58:26.641Z,0.00
2018-04-02T02:59:26.637Z,0.00
2018-04-02T03:00:26.633Z,0.00
2018-04-02T03:01:26.615Z,0.00
2018-04-02T03:02:26.818Z,0.00
2018-04-02T03:03:26.603Z,0.00
2018-04-02T03:04:26.603Z,0.00
2018-04-02T03:05:26.591Z,0.00
2018-04-02T03:06:26.592Z,0.00
2018-04-02T03:07:26.601Z,0.00
2018-04-02T03:08:26.577Z,0.00
2018-04-02T03:09:26.766Z,0.00
2018-04-02T03:10:26.777Z,0.00
2018-04-02T03:11:26.575Z,0.00
2018-04-02T03:12:26.571Z,0.00
2018-04-02T03:13:26.536Z,0.00
2018-04-02T03:14:26.539Z,0.00
2018-04-02T03:15:26.537Z,0.00
2018-04-02T03:16:26.530Z,0.00
2018-04-02T03:17:26.534Z,0.00
2018-04-02T03:18:26.513Z,0.00
2018-04-02T03:19:26.496Z,0.00
2018-04-02T03:20:26.491Z,0.00
2018-04-02T03:21:26.496Z,0.00
2018-04-02T03:22:26.511Z,0.00
2018-04-02T03:23:26.480Z,0.00
2018-04-02T03:24:26.680Z,0.00
2018-04-02T03:25:26.486Z,0.00
2018-04-02T03:26:26.664Z,0.00
2018-04-02T03:27:26.674Z,0.00
2018-04-02T03:28:26.442Z,0.00
2018-04-02T03:29:26.435Z,0.00
2018-04-02T03:30:26.441Z,0.00
2018-04-02T03:31:26.435Z,0.00
2018-04-02T03:32:26.642Z,0.00
2018-04-02T03:33:26.430Z,0.00
2018-04-02T03:34:26.422Z,0.00
2018-04-02T03:35:26.419Z,0.00
2018-04-02T03:36:26.387Z,0.00
2018-04-02T03:37:26.587Z,0.00
2018-04-02T03:38:26.388Z,0.00
2018-04-02T03:39:26.608Z,0.00
2018-04-02T03:40:26.376Z,0.00
2018-04-02T03:41:26.580Z,0.00
2018-04-02T03:42:26.556Z,0.00
2018-04-02T03:43:26.376Z,0.00
2018-04-02T03:44:26.361Z,0.00
2018-04-02T03:45:26.361Z,0.00
2018-04-02T03:46:26.327Z,0.00
2018-04-02T03:47:26.336Z,0.00
2018-04-02T03:48:26.540Z,0.00
2018-04-02T03:49:26.335Z,0.00
2018-04-02T03:50:26.314Z,0.00
2018-04-02T03:51:26.298Z,0.00
2018-04-02T03:52:26.292Z,0.00
2018-04-02T03:53:26.286Z,0.00
2018-04-02T03:54:26.482Z,0.00
2018-04-02T03:55:26.473Z,0.00
2018-04-02T03:56:26.282Z,0.00
2018-04-02T03:57:26.494Z,0.00
2018-04-02T03:58:26.489Z,0.00
2018-04-02T03:59:26.263Z,0.00
2018-04-02T04:00:26.267Z,0.00
2018-04-02T04:01:26.272Z,0.00
2018-04-02T04:02:26.245Z,0.00
2018-04-02T04:03:26.247Z,0.00
2018-04-02T04:04:26.237Z,0.00
2018-04-02T04:05:26.210Z,0.00
2018-04-02T04:06:26.206Z,0.00
2018-04-02T04:07:26.210Z,0.00
2018-04-02T04:08:26.398Z,0.00
2018-04-02T04:09:26.188Z,0.00
2018-04-02T04:10:26.387Z,0.00
2018-04-02T04:11:26.376Z,0.00
2018-04-02T04:12:26.381Z,0.00
2018-04-02T04:13:26.177Z,0.00
2018-04-02T04:14:26.152Z,0.00
2018-04-02T04:15:26.159Z,0.00
2018-04-02T04:16:26.143Z,0.00
2018-04-02T04:17:26.155Z,0.00
2018-04-02T04:18:26.142Z,0.00
2018-04-02T04:19:26.352Z,0.00
2018-04-02T04:20:26.126Z,0.00
2018-04-02T04:21:26.109Z,0.00
2018-04-02T04:22:26.127Z,0.00
2018-04-02T04:23:26.312Z,0.00
2018-04-02T04:24:26.090Z,0.00
2018-04-02T04:25:26.297Z,0.00
2018-04-02T04:26:26.080Z,0.00
2018-04-02T04:27:26.070Z,0.00
2018-04-02T04:28:26.067Z,0.00
2018-04-02T04:29:26.055Z,0.00
2018-04-02T04:30:26.076Z,0.00
2018-04-02T04:31:26.053Z,0.00
2018-04-02T04:32:26.041Z,0.00
2018-04-02T04:33:26.249Z,0.00
2018-04-02T04:34:26.025Z,0.00
2018-04-02T04:35:26.249Z,0.00
2018-04-02T04:36:26.016Z,0.00
2018-04-02T04:37:26.037Z,0.00
2018-04-02T04:38:26.012Z,0.00
2018-04-02T04:39:26.004Z,0.00
2018-04-02T04:40:26.034Z,0.00
2018-04-02T04:41:25.984Z,4.00
2018-04-02T04:42:25.974Z,0.00
2018-04-02T04:43:25.971Z,0.00
2018-04-02T04:44:25.971Z,4.00
2018-04-02T04:45:25.971Z,0.00
2018-04-02T04:46:26.163Z,4.00
2018-04-02T04:47:25.966Z,4.00
2018-04-02T04:48:25.931Z,4.00
2018-04-02T04:49:25.935Z,4.00
2018-04-02T04:50:25.933Z,8.00
2018-04-02T04:51:25.938Z,8.00
2018-04-02T04:52:25.930Z,8.00
2018-04-02T04:53:26.119Z,12.00
2018-04-02T04:54:26.111Z,12.00
2018-04-02T04:55:25.886Z,12.00
2018-04-02T04:56:25.893Z,16.00
2018-04-02T04:57:25.889Z,20.00
2018-04-02T04:58:25.880Z,20.00
2018-04-02T04:59:25.973Z,24.00
2018-04-02T05:00:25.864Z,28.00
2018-04-02T05:01:25.868Z,28.00
2018-04-02T05:02:26.042Z,32.00
2018-04-02T05:03:25.831Z,40.00
2018-04-02T05:04:25.844Z,44.00
2018-04-02T05:05:26.047Z,48.00
2018-04-02T05:06:25.832Z,52.00
2018-04-02T05:07:25.817Z,60.00
2018-04-02T05:08:25.807Z,64.00
2018-04-02T05:09:25.816Z,72.00
2018-04-02T05:10:25.813Z,76.00
2018-04-02T05:11:25.796Z,84.00
2018-04-02T05:12:25.811Z,96.00
2018-04-02T05:13:25.980Z,100.00
2018-04-02T05:14:25.974Z,112.00
2018-04-02T05:15:25.957Z,116.00
2018-04-02T05:16:25.748Z,128.00
2018-04-02T05:17:25.961Z,136.00
2018-04-02T05:18:25.747Z,144.00
2018-04-02T05:19:25.740Z,148.00
2018-04-02T05:20:25.736Z,160.00
2018-04-02T05:21:25.940Z,172.00
2018-04-02T05:22:25.732Z,176.00
2018-04-02T05:23:25.732Z,176.00
2018-04-02T05:24:25.706Z,176.00
2018-04-02T05:25:25.689Z,172.00
2018-04-02T05:26:25.713Z,172.00
2018-04-02T05:27:25.671Z,184.00
2018-04-02T05:28:25.678Z,200.00
2018-04-02T05:29:25.692Z,216.00
2018-04-02T05:30:25.870Z,224.00
2018-04-02T05:31:25.876Z,224.00
2018-04-02T05:32:25.660Z,232.00
2018-04-02T05:33:25.640Z,232.00
2018-04-02T05:34:25.624Z,240.00
2018-04-02T05:35:25.831Z,248.00
2018-04-02T05:36:25.608Z,264.00
2018-04-02T05:37:25.606Z,292.00
2018-04-02T05:38:25.633Z,296.00
2018-04-02T05:39:25.809Z,292.00
2018-04-02T05:40:25.594Z,284.00
2018-04-02T05:41:25.573Z,276.00
2018-04-02T05:42:25.783Z,272.00
2018-04-02T05:43:25.573Z,276.00
2018-04-02T05:44:25.591Z,268.00
2018-04-02T05:45:25.565Z,260.00
2018-04-02T05:46:25.758Z,256.00
2018-04-02T05:47:25.765Z,260.00
2018-04-02T05:48:25.531Z,300.00
2018-04-02T05:49:25.558Z,328.00
2018-04-02T05:50:25.516Z,340.00
2018-04-02T05:51:25.521Z,344.00
2018-04-02T05:52:25.708Z,336.00
2018-04-02T05:53:25.522Z,352.00
2018-04-02T05:54:25.718Z,372.00
2018-04-02T05:55:25.496Z,380.00
2018-04-02T05:56:25.701Z,376.00
2018-04-02T05:57:25.490Z,380.00
2018-04-02T05:58:25.467Z,364.00
2018-04-02T05:59:25.483Z,364.00
2018-04-02T06:00:25.455Z,376.00
2018-04-02T06:01:25.461Z,392.00
2018-04-02T06:02:25.452Z,404.00
2018-04-02T06:03:25.460Z,404.00
2018-04-02T06:04:25.636Z,404.00
2018-04-02T06:05:25.650Z,412.00
2018-04-02T06:06:25.417Z,432.00
2018-04-02T06:07:25.419Z,460.00
2018-04-02T06:08:25.414Z,476.00
2018-04-02T06:09:25.611Z,512.00
2018-04-02T06:10:25.402Z,508.00
2018-04-02T06:11:25.397Z,516.00
2018-04-02T06:12:25.380Z,584.00
2018-04-02T06:13:25.386Z,644.00
2018-04-02T06:14:25.429Z,696.00
2018-04-02T06:15:25.362Z,752.00
2018-04-02T06:16:25.358Z,840.00
2018-04-02T06:17:25.349Z,960.00
2018-04-02T06:18:25.341Z,1088.00
2018-04-02T06:19:25.337Z,1200.00
2018-04-02T06:20:25.347Z,1260.00
2018-04-02T06:21:25.350Z,1276.00
2018-04-02T06:22:25.395Z,1304.00
2018-04-02T06:23:25.559Z,1332.00
2018-04-02T06:24:25.355Z,1376.00
2018-04-02T06:25:25.320Z,1428.00
2018-04-02T06:26:25.304Z,1488.00
2018-04-02T06:27:25.494Z,1532.00
2018-04-02T06:28:25.308Z,1580.00
2018-04-02T06:29:25.303Z,1616.00
2018-04-02T06:30:25.295Z,1612.00
2018-04-02T06:31:25.293Z,1644.00
2018-04-02T06:32:25.277Z,1660.00
2018-04-02T06:33:25.266Z,1648.00
2018-04-02T06:34:25.481Z,1612.00
2018-04-02T06:35:25.244Z,1628.00
2018-04-02T06:36:25.238Z,1632.00
2018-04-02T06:37:25.228Z,1676.00
2018-04-02T06:38:25.248Z,1744.00
2018-04-02T06:39:25.242Z,1756.00
2018-04-02T06:40:25.235Z,1696.00
2018-04-02T06:41:25.214Z,1616.00
2018-04-02T06:42:25.225Z,1564.00
2018-04-02T06:43:25.412Z,1496.00
2018-04-02T06:44:25.240Z,1460.00
2018-04-02T06:45:25.210Z,1468.00
2018-04-02T06:46:25.190Z,1428.00
2018-04-02T06:47:25.189Z,1340.00
2018-04-02T06:48:25.184Z,1308.00
2018-04-02T06:49:25.160Z,1240.00
2018-04-02T06:50:25.167Z,1228.00
2018-04-02T06:51:25.379Z,1264.00
2018-04-02T06:52:25.168Z,1252.00
2018-04-02T06:53:25.160Z,1224.00
2018-04-02T06:54:25.146Z,1180.00
2018-04-02T06:55:25.354Z,1100.00
2018-04-02T06:56:25.134Z,992.00
2018-04-02T06:57:25.115Z,892.00
2018-04-02T06:58:25.110Z,828.00
2018-04-02T06:59:25.107Z,804.00
2018-04-02T07:00:25.112Z,784.00
2018-04-02T07:01:25.094Z,760.00
2018-04-02T07:02:25.087Z,728.00
2018-04-02T07:03:25.082Z,704.00
2018-04-02T07:04:25.127Z,680.00
2018-04-02T07:05:25.070Z,648.00
2018-04-02T07:06:25.268Z,612.00
2018-04-02T07:07:25.071Z,568.00
2018-04-02T07:08:25.270Z,532.00
2018-04-02T07:09:25.049Z,504.00
2018-04-02T07:10:25.062Z,500.00
2018-04-02T07:11:25.046Z,516.00
2018-04-02T07:12:25.052Z,536.00
2018-04-02T07:13:25.254Z,556.00
2018-04-02T07:14:25.035Z,568.00
2018-04-02T07:15:25.023Z,584.00
2018-04-02T07:16:25.225Z,608.00
2018-04-02T07:17:25.023Z,644.00
2018-04-02T07:18:24.999Z,708.00
2018-04-02T07:19:25.213Z,792.00
2018-04-02T07:20:24.988Z,864.00
2018-04-02T07:21:25.013Z,956.00
2018-04-02T07:22:24.983Z,1228.00
2018-04-02T07:23:24.968Z,1520.00
2018-04-02T07:24:25.182Z,1620.00
2018-04-02T07:25:25.163Z,1648.00
2018-04-02T07:26:24.953Z,1776.00
2018-04-02T07:27:24.950Z,1748.00
2018-04-02T07:28:24.954Z,1732.00
2018-04-02T07:29:24.965Z,1740.00
2018-04-02T07:30:24.927Z,1580.00
2018-04-02T07:31:24.938Z,1500.00
2018-04-02T07:32:24.917Z,1492.00
2018-04-02T07:33:25.118Z,1488.00
2018-04-02T07:34:24.908Z,1592.00
2018-04-02T07:35:24.910Z,1752.00
2018-04-02T07:36:24.908Z,1864.00
2018-04-02T07:37:24.908Z,1860.00
2018-04-02T07:38:24.899Z,1816.00
2018-04-02T07:39:24.879Z,1856.00
2018-04-02T07:40:25.076Z,1768.00
2018-04-02T07:41:24.869Z,1736.00
2018-04-02T07:42:24.876Z,1696.00
2018-04-02T07:43:24.861Z,1700.00
2018-04-02T07:44:24.868Z,1660.00
2018-04-02T07:45:25.051Z,1632.00
2018-04-02T07:46:24.851Z,1740.00
2018-04-02T07:47:24.852Z,1828.00
2018-04-02T07:48:25.091Z,1748.00
2018-04-02T07:49:24.848Z,1752.00
2018-04-02T07:50:24.843Z,1716.00
2018-04-02T07:51:25.019Z,1612.00
2018-04-02T07:52:24.807Z,1524.00
2018-04-02T07:53:24.814Z,1496.00
2018-04-02T07:54:25.016Z,1488.00
2018-04-02T07:55:24.803Z,1516.00
2018-04-02T07:56:24.786Z,1564.00
2018-04-02T07:57:24.801Z,1612.00
2018-04-02T07:58:24.796Z,1624.00
2018-04-02T07:59:24.771Z,1560.00
2018-04-02T08:00:24.765Z,1488.00
2018-04-02T08:01:24.986Z,1372.00
2018-04-02T08:02:24.754Z,1256.00
2018-04-02T08:03:24.762Z,1256.00
2018-04-02T08:04:24.967Z,1324.00
2018-04-02T08:05:24.741Z,1388.00
2018-04-02T08:06:24.747Z,1568.00
2018-04-02T08:07:24.742Z,1800.00
2018-04-02T08:08:24.735Z,1864.00
2018-04-02T08:09:24.947Z,1744.00
2018-04-02T08:10:24.710Z,1564.00
2018-04-02T08:11:24.719Z,1492.00
2018-04-02T08:12:24.715Z,1696.00
2018-04-02T08:13:24.709Z,1888.00
2018-04-02T08:14:24.908Z,1940.00
2018-04-02T08:15:24.689Z,1824.00
2018-04-02T08:16:24.685Z,1796.00
2018-04-02T08:17:24.880Z,1968.00
2018-04-02T08:18:24.671Z,2224.00
2018-04-02T08:19:24.665Z,2228.00
2018-04-02T08:20:24.657Z,2088.00
2018-04-02T08:21:24.715Z,2020.00
2018-04-02T08:22:24.660Z,2340.00
2018-04-02T08:23:24.644Z,2804.00
2018-04-02T08:24:24.637Z,2864.00
2018-04-02T08:25:24.692Z,2688.00
2018-04-02T08:26:24.628Z,2524.00
2018-04-02T08:27:24.626Z,2644.00
2018-04-02T08:28:24.632Z,3084.00
2018-04-02T08:29:24.842Z,3848.00
2018-04-02T08:30:24.813Z,3312.00
2018-04-02T08:31:24.827Z,3404.00
2018-04-02T08:32:24.664Z,4544.00
2018-04-02T08:33:24.620Z,6068.00
2018-04-02T08:34:24.615Z,4212.00
2018-04-02T08:35:24.605Z,3896.00
2018-04-02T08:36:24.582Z,3428.00
2018-04-02T08:37:24.580Z,3112.00
2018-04-02T08:38:24.572Z,2988.00
2018-04-02T08:39:24.577Z,3220.00
2018-04-02T08:40:25.397Z,3108.00
2018-04-02T08:41:24.581Z,2896.00
2018-04-02T08:42:24.763Z,2808.00
2018-04-02T08:43:24.568Z,3020.00
2018-04-02T08:44:24.589Z,4428.00
2018-04-02T08:45:24.737Z,7304.00
2018-04-02T08:46:24.529Z,3940.00
2018-04-02T08:47:24.544Z,3412.00
2018-04-02T08:48:24.746Z,4716.00
2018-04-02T08:49:24.520Z,3536.00
2018-04-02T08:50:24.735Z,3424.00
2018-04-02T08:51:24.519Z,4292.00
2018-04-02T08:52:24.513Z,4244.00
2018-04-02T08:53:24.499Z,4316.00
2018-04-02T08:54:24.491Z,4408.00
2018-04-02T08:55:24.730Z,3812.00
2018-04-02T08:56:24.492Z,3616.00
2018-04-02T08:57:24.487Z,3132.00
2018-04-02T08:58:24.474Z,2676.00
2018-04-02T08:59:24.672Z,2804.00
2018-04-02T09:00:24.478Z,2888.00
2018-04-02T09:01:24.679Z,2824.00
2018-04-02T09:02:24.470Z,3076.00
2018-04-02T09:03:24.450Z,3272.00
2018-04-02T09:04:24.449Z,3328.00
2018-04-02T09:05:24.454Z,3580.00
2018-04-02T09:06:24.448Z,4032.00
2018-04-02T09:07:24.648Z,4156.00
2018-04-02T09:08:24.432Z,4224.00
2018-04-02T09:09:24.446Z,4032.00
2018-04-02T09:10:24.419Z,3900.00
2018-04-02T09:11:24.617Z,3432.00
2018-04-02T09:12:24.410Z,3048.00
2018-04-02T09:13:24.623Z,2844.00
2018-04-02T09:14:24.428Z,2872.00
2018-04-02T09:15:24.396Z,2928.00
2018-04-02T09:16:24.391Z,2864.00
2018-04-02T09:17:24.398Z,2760.00
2018-04-02T09:18:24.421Z,2652.00
2018-04-02T09:19:24.580Z,2468.00
2018-04-02T09:20:24.578Z,2388.00
2018-04-02T09:21:24.382Z,2388.00
2018-04-02T09:22:24.378Z,2372.00
2018-04-02T09:23:24.363Z,2360.00
2018-04-02T09:24:24.583Z,2408.00
2018-04-02T09:25:24.363Z,2472.00
2018-04-02T09:26:24.351Z,2552.00
2018-04-02T09:27:24.355Z,2644.00
2018-04-02T09:28:24.354Z,2664.00
2018-04-02T09:29:24.338Z,2684.00
2018-04-02T09:30:24.353Z,2736.00
2018-04-02T09:31:24.342Z,2868.00
2018-04-02T09:32:24.323Z,2888.00
2018-04-02T09:33:24.534Z,3060.00
2018-04-02T09:34:24.324Z,3184.00
2018-04-02T09:35:24.310Z,3348.00
2018-04-02T09:36:24.316Z,3560.00
2018-04-02T09:37:24.520Z,3596.00
2018-04-02T09:38:24.298Z,3636.00
2018-04-02T09:39:24.304Z,3772.00
2018-04-02T09:40:24.306Z,3972.00
2018-04-02T09:41:24.285Z,4188.00
2018-04-02T09:42:24.280Z,4316.00
2018-04-02T09:43:24.273Z,4408.00
2018-04-02T09:44:24.488Z,4524.00
2018-04-02T09:45:24.290Z,4636.00
2018-04-02T09:46:24.266Z,4656.00
2018-04-02T09:47:24.283Z,4860.00
2018-04-02T09:48:24.256Z,4928.00
2018-04-02T09:49:24.267Z,5360.00
2018-04-02T09:50:24.248Z,5424.00
2018-04-02T09:51:24.245Z,5132.00
2018-04-02T09:52:24.251Z,5056.00
2018-04-02T09:53:24.251Z,4980.00
2018-04-02T09:54:24.230Z,5024.00
2018-04-02T09:55:24.229Z,4964.00
2018-04-02T09:56:24.466Z,5188.00
2018-04-02T09:57:24.241Z,5320.00
2018-04-02T09:58:24.235Z,5548.00
2018-04-02T09:59:24.275Z,5624.00
2018-04-02T10:00:24.231Z,5520.00
2018-04-02T10:01:24.228Z,5672.00
2018-04-02T10:02:24.216Z,5520.00
2018-04-02T10:03:24.213Z,5000.00
2018-04-02T10:04:24.424Z,4780.00
2018-04-02T10:05:24.190Z,4644.00
2018-04-02T10:06:24.186Z,4568.00
2018-04-02T10:07:24.196Z,4712.00
2018-04-02T10:08:24.178Z,4896.00
2018-04-02T10:09:24.389Z,4860.00
2018-04-02T10:10:24.428Z,4704.00
2018-04-02T10:11:24.384Z,4580.00
2018-04-02T10:12:24.176Z,4612.00
2018-04-02T10:13:24.176Z,4592.00
2018-04-02T10:14:24.159Z,4504.00
2018-04-02T10:15:24.381Z,4640.00
2018-04-02T10:16:24.164Z,4980.00
2018-04-02T10:17:24.158Z,5216.00
2018-04-02T10:18:24.145Z,4940.00
2018-04-02T10:19:24.156Z,4512.00
2018-04-02T10:20:24.163Z,4152.00
2018-04-02T10:21:24.140Z,3832.00
2018-04-02T10:22:24.131Z,3732.00
2018-04-02T10:23:24.129Z,3764.00
2018-04-02T10:24:24.124Z,3784.00
2018-04-02T10:25:24.122Z,3780.00
2018-04-02T10:26:24.339Z,3864.00
2018-04-02T10:27:24.116Z,3904.00
2018-04-02T10:28:24.122Z,3756.00
2018-04-02T10:29:24.132Z,3732.00
2018-04-02T10:30:24.135Z,3896.00
2018-04-02T10:31:24.112Z,3868.00
2018-04-02T10:32:24.110Z,3780.00
2018-04-02T10:33:24.092Z,3668.00
2018-04-02T10:34:24.125Z,3648.00
2018-04-02T10:35:24.312Z,3504.00
2018-04-02T10:36:24.104Z,3724.00
2018-04-02T10:37:24.101Z,3900.00
2018-04-02T10:38:24.078Z,3896.00
2018-04-02T10:39:24.100Z,4128.00
2018-04-02T10:40:24.071Z,4124.00
2018-04-02T10:41:24.083Z,3848.00
2018-04-02T10:42:24.094Z,3600.00
2018-04-02T10:43:24.279Z,3364.00
2018-04-02T10:46:20.923Z,3160.00
2018-04-02T10:47:08.117Z,3080.00
2018-04-02T10:48:08.114Z,2968.00
2018-04-02T10:49:08.121Z,2992.00
2018-04-02T10:50:08.110Z,2996.00
2018-04-02T10:51:08.104Z,2912.00
2018-04-02T10:52:08.102Z,2908.00
2018-04-02T10:53:08.120Z,2960.00
2018-04-02T10:54:08.116Z,3052.00
2018-04-02T10:55:08.092Z,3112.00
2018-04-02T10:56:08.093Z,3196.00
2018-04-02T10:57:08.099Z,3268.00
2018-04-02T10:58:08.084Z,3444.00
2018-04-02T10:59:08.090Z,3296.00
2018-04-02T11:00:08.079Z,3228.00
2018-04-02T11:01:08.086Z,3280.00
2018-04-02T11:02:08.069Z,3192.00
2018-04-02T11:03:08.089Z,3040.00
2018-04-02T11:04:08.075Z,3164.00
2018-04-02T11:05:08.082Z,3016.00
2018-04-02T11:06:08.082Z,2972.00
2018-04-02T11:07:08.057Z,2976.00
2018-04-02T11:08:08.050Z,2904.00
2018-04-02T11:09:08.068Z,2972.00
2018-04-02T11:10:08.041Z,2924.00
2018-04-02T11:11:08.057Z,2740.00
2018-04-02T11:12:08.043Z,2588.00
2018-04-02T11:13:08.037Z,2660.00
2018-04-02T11:14:08.032Z,2724.00
2018-04-02T11:15:08.032Z,2764.00
2018-04-02T11:16:08.047Z,2828.00
2018-04-02T11:17:08.028Z,2732.00
2018-04-02T11:18:08.019Z,2676.00
2018-04-02T11:19:08.020Z,2736.00
2018-04-02T11:20:08.028Z,2676.00
2018-04-02T11:21:08.010Z,2592.00
2018-04-02T11:22:08.035Z,2552.00
2018-04-02T11:23:08.025Z,2540.00
2018-04-02T11:24:08.003Z,2604.00
2018-04-02T11:25:07.998Z,2564.00
2018-04-02T11:26:07.996Z,2520.00
2018-04-02T11:27:08.002Z,2544.00
2018-04-02T11:28:07.992Z,2484.00
2018-04-02T11:29:07.999Z,2364.00
2018-04-02T11:30:07.982Z,2360.00
2018-04-02T11:31:07.983Z,2520.00
2018-04-02T11:32:07.981Z,2684.00
2018-04-02T11:33:07.979Z,2912.00
2018-04-02T11:34:08.185Z,3004.00
2018-04-02T11:35:07.967Z,3072.00
2018-04-02T11:36:07.975Z,2960.00
2018-04-02T11:37:07.972Z,2844.00
2018-04-02T11:38:07.955Z,2784.00
2018-04-02T11:39:07.967Z,2716.00
2018-04-02T11:40:07.952Z,2844.00
2018-04-02T11:41:07.960Z,3024.00
2018-04-02T11:42:08.149Z,3052.00
2018-04-02T11:43:07.962Z,2952.00
2018-04-02T11:44:07.950Z,2768.00
2018-04-02T11:45:07.958Z,2824.00
2018-04-02T11:46:07.946Z,2844.00
2018-04-02T11:47:07.945Z,2884.00
2018-04-02T11:48:07.948Z,3060.00
2018-04-02T11:49:07.949Z,2972.00
2018-04-02T11:50:07.930Z,2912.00
2018-04-02T11:51:07.930Z,2764.00
2018-04-02T11:52:07.936Z,2796.00
2018-04-02T11:53:07.922Z,2816.00
2018-04-02T11:54:07.908Z,2800.00
2018-04-02T11:55:07.905Z,2824.00
2018-04-02T11:56:08.105Z,2904.00
2018-04-02T11:57:07.929Z,2972.00
2018-04-02T11:58:07.896Z,2916.00
2018-04-02T11:59:07.896Z,2892.00
2018-04-02T12:00:07.901Z,2800.00
2018-04-02T12:01:07.884Z,2592.00
2018-04-02T12:02:07.885Z,2524.00
2018-04-02T12:03:07.880Z,2436.00
2018-04-02T12:04:07.893Z,2368.00
2018-04-02T12:05:07.886Z,2404.00
2018-04-02T12:06:07.875Z,2388.00
2018-04-02T12:07:07.883Z,2380.00
2018-04-02T12:08:07.880Z,2432.00
2018-04-02T12:09:07.866Z,2420.00
2018-04-02T12:10:07.859Z,2540.00
2018-04-02T12:11:07.872Z,2640.00
2018-04-02T12:12:07.864Z,2660.00
2018-04-02T12:13:07.861Z,2612.00
2018-04-02T12:14:07.858Z,2524.00
2018-04-02T12:15:07.848Z,2536.00
2018-04-02T12:16:07.854Z,2736.00
2018-04-02T12:17:07.841Z,2748.00
2018-04-02T12:18:07.840Z,2692.00
2018-04-02T12:19:07.833Z,2660.00
2018-04-02T12:20:07.831Z,2568.00
2018-04-02T12:21:07.882Z,2536.00
2018-04-02T12:22:07.834Z,2568.00
2018-04-02T12:23:07.836Z,2496.00
2018-04-02T12:24:07.840Z,2484.00
2018-04-02T12:25:07.827Z,2516.00
2018-04-02T12:26:07.827Z,2564.00
2018-04-02T12:27:07.818Z,2596.00
2018-04-02T12:28:07.817Z,2664.00
2018-04-02T12:29:08.002Z,2704.00
2018-04-02T12:30:07.809Z,2664.00
2018-04-02T12:31:07.804Z,2536.00
2018-04-02T12:32:07.803Z,2580.00
2018-04-02T12:33:07.792Z,2488.00
2018-04-02T12:34:07.992Z,2476.00
2018-04-02T12:35:07.793Z,2408.00
2018-04-02T12:36:07.781Z,2172.00
2018-04-02T12:37:07.778Z,2052.00
2018-04-02T12:38:07.785Z,2148.00